Latest Coastal Weather Observations for Moorabbin Airport

IDV60701

Issued at 9:15 am EDT Wednesday 26 November 2014 (issued every 10 minutes, with the page automatically refreshed every 10 minutes)

About coastal observations | Map of coastal stations | Coastal observations for VIC | Marine services | Other Formats
Station Details ID: 086077 Name: MOORABBIN AIRPORT Lat: -37.98 Lon: 145.10 Height: 12.1 m
Data from the previous 72 hours. | See also: Recent months at Moorabbin Airport
Date/Time
EDT
Temp

°C
Wind Pressure Rain
since 9am
mm
Weather Cloud Vis
km
Sea
Height
m
Swell
Dir
 
Speed
knots
Gust
knots
hPa Trend Height
m
Period
s
Dir
26/09:00am 14.6 WNW 7 11 1021.5 - 0.0 - Cloudy 10 - - - -
26/08:30am 14.2 NW 8 11 1021.4 - 0.0 - Cloudy 10 - - - -
26/08:00am 13.6 WNW 7 11 1021.2 - 0.0 - Cloudy 10 - - - -
26/07:30am 13.1 WNW 7 11 1021.1 - 0.0 - Partly cloudy 10 - - - -
26/07:00am 12.7 WNW 6 9 1020.7 - 0.0 - - 10 - - - -
26/06:30am 12.3 WNW 5 8 1020.7 - 0.0 - - 10 - - - -
26/06:00am 12.2 WNW 4 6 1020.4 - 0.0 - Cloudy 10 - - - -
26/05:30am 12.2 WNW 5 6 1020.2 - 0.0 - - 10 - - - -
26/05:00am 12.4 NW 6 9 1019.9 - 0.0 - - 10 - - - -
26/04:30am 12.3 WNW 6 9 1020.0 - 0.0 - - 10 - - - -
26/04:00am 12.1 WNW 5 7 1020.0 - 0.0 - - 10 - - - -
26/03:30am 12.1 WNW 4 6 1019.9 - 0.0 - - 10 - - - -
26/03:00am 12.4 NW 5 6 1020.0 - 0.0 - - 10 - - - -
26/02:30am 12.9 WNW 6 8 1020.2 - 0.0 - - 10 - - - -
26/02:00am 13.0 WNW 5 7 1020.4 - 0.0 - - 10 - - - -
26/01:30am 13.4 W 6 8 1020.6 - 0.0 - - 10 - - - -
26/01:00am 13.8 W 5 8 1020.9 - 0.0 - Partly cloudy 10 - - - -
26/12:30am 14.3 W 6 11 1021.1 - 0.0 - Partly cloudy 10 - - - -
26/12:00am 14.9 W 7 12 1021.3 - 0.0 - Cloudy 10 - - - -
 
Date/Time
EDT
Temp

°C
Wind Pressure Rain
since 9am
mm
Weather Cloud Vis
km
Sea
Height
m
Swell
Dir
 
Speed
knots
Gust
knots
hPa Trend Height
m
Period
s
Dir
25/11:30pm 15.0 WSW 7 11 1021.5 - 0.0 - Cloudy 10 - - - -
25/11:00pm 15.2 WSW 7 10 1021.6 - 0.0 - Partly cloudy 10 - - - -
25/10:30pm 15.0 SSW 9 12 1021.6 - 0.0 - Partly cloudy 10 - - - -
25/10:00pm 15.2 SW 10 14 1021.4 - 0.0 - Partly cloudy 10 - - - -
25/09:30pm 16.1 SSW 9 13 1021.2 - 0.0 - Cloudy 10 - - - -
25/09:00pm 15.4 SSW 11 16 1020.9 - 0.0 - Cloudy 10 - - - -
25/08:30pm 15.4 SSW 11 16 1020.6 - 0.0 - Partly cloudy 10 - - - -
25/08:00pm 15.6 SSW 12 16 1020.4 - 0.0 - Partly cloudy 10 - - - -
25/07:30pm 16.2 S 12 17 1020.1 - 0.0 - Partly cloudy 10 - - - -
25/07:00pm 16.2 S 12 16 1019.6 - 0.0 - - 10 - - - -
25/06:30pm 16.7 SSW 14 18 1019.1 - 0.0 - Partly cloudy 10 - - - -
25/06:00pm 16.7 S 15 16 1018.8 - 0.0 - Mostly clear 10 - - - -
25/05:30pm 17.2 SSW 13 18 1018.8 - 0.0 - Partly cloudy 10 - - - -
25/05:00pm 17.6 S 11 15 1018.8 - 0.0 - - 10 - - - -
25/04:30pm 17.8 S 11 15 1018.7 - 0.0 - Partly cloudy 10 - - - -
25/04:00pm 18.4 SW 10 17 1018.7 - 0.0 - Partly cloudy 10 - - - -
25/03:30pm 18.7 SSW 11 15 1018.7 - 0.0 - Partly cloudy 10 - - - -
25/03:00pm 19.1 SSW 11 15 1018.8 - 0.0 - Partly cloudy 10 - - - -
25/02:30pm 19.6 WSW 14 19 1018.5 - 0.0 - Partly cloudy 10 - - - -
25/02:00pm 19.0 WSW 14 20 1018.7 - 0.0 - Partly cloudy 10 - - - -
25/01:30pm 18.7 WSW 11 18 1018.8 - 0.0 - Partly cloudy 10 - - - -
25/01:03pm 18.9 WSW 15 25 1018.8 - 0.0 - Partly cloudy 10 - - - -
25/01:00pm 18.7 WSW 16 25 1018.9 - 0.0 - Partly cloudy 10 - - - -
25/12:56pm 18.2 WSW 15 25 1018.8 - 0.0 - Partly cloudy 10 - - - -
25/12:30pm 18.1 WSW 12 17 1018.8 - 0.0 - - 10 - - - -
25/12:00pm 17.3 WSW 12 17 1019.0 - 0.0 - Partly cloudy 10 - - - -
25/11:30am 17.6 W 13 19 1019.0 - 0.0 - Partly cloudy 10 - - - -
25/11:00am 16.9 WSW 11 15 1018.9 - 0.0 - Partly cloudy 10 - - - -
25/10:30am 16.0 W 12 19 1018.9 - 0.0 - Partly cloudy 10 - - - -
25/10:00am 15.2 W 13 20 1018.8 - 0.0 - Partly cloudy 10 - - - -
25/09:30am 15.0 W 12 18 1018.7 - 0.0 - Partly cloudy 10 - - - -
25/09:00am 14.4 WNW 11 16 1018.3 - 14.2 - Mostly cloudy 10 - - - -
25/08:30am 13.7 W 11 17 1017.7 - 14.2 - Partly cloudy 10 - - - -
25/08:00am 13.3 WNW 11 16 1017.4 - 14.2 - Partly cloudy 10 - - - -
25/07:30am 12.7 WNW 9 13 1017.0 - 14.2 - Partly cloudy 10 - - - -
25/07:00am 12.5 WNW 8 14 1016.3 - 14.2 - Partly cloudy 10 - - - -
25/06:30am 12.2 WNW 8 14 1016.0 - 14.2 - Partly cloudy 10 - - - -
25/06:00am 11.9 WNW 9 14 1015.4 - 14.2 - Mostly clear 10 - - - -
25/05:30am 12.0 W 9 15 1015.2 - 14.2 - - 10 - - - -
25/05:00am 12.1 WNW 10 16 1014.7 - 14.2 - - 10 - - - -
25/04:30am 12.4 W 11 20 1014.4 - 14.2 - - 10 - - - -
25/04:00am 12.4 W 11 17 1014.3 - 14.2 - - 10 - - - -
25/03:30am 12.6 W 11 19 1014.4 - 14.2 - Partly cloudy 10 - - - -
25/03:00am 12.8 W 9 16 1014.3 - 14.2 - Mostly clear 10 - - - -
25/02:30am 12.9 W 10 16 1014.3 - 14.2 - Partly cloudy 10 - - - -
25/02:00am 13.0 W 9 14 1014.3 - 14.2 - Partly cloudy 10 - - - -
25/01:30am 13.0 W 9 14 1014.1 - 14.2 - Partly cloudy 10 - - - -
25/01:00am 13.5 W 10 16 1014.1 - 14.2 - Partly cloudy 10 - - - -
25/12:30am 13.9 W 12 19 1014.0 - 14.2 - Partly cloudy 10 - - - -
25/12:00am 14.2 WSW 13 21 1013.8 - 14.2 - - 10 - - - -
 
Date/Time
EDT
Temp

°C
Wind Pressure Rain
since 9am
mm
Weather Cloud Vis
km
Sea
Height
m
Swell
Dir
 
Speed
knots
Gust
knots
hPa Trend Height
m
Period
s
Dir
24/11:30pm 14.5 WSW 14 20 1013.5 - 14.2 - - 10 - - - -
24/11:00pm 14.7 W 14 21 1013.4 - 14.2 - - 10 - - - -
24/10:30pm 14.7 WSW 10 15 1013.3 - 14.2 - Partly cloudy 10 - - - -
24/10:00pm 14.7 W 12 19 1013.1 - 14.2 - Partly cloudy 10 - - - -
24/09:30pm 14.7 W 9 14 1012.7 - 14.2 - Partly cloudy 10 - - - -
24/09:00pm 14.5 W 9 13 1012.3 - 14.2 - Cloudy 10 - - - -
24/08:30pm 14.7 SW 14 20 1011.8 - 14.2 - Cloudy 10 - - - -
24/08:00pm 14.3 SW 15 23 1011.6 - 14.2 - Cloudy 10 - - - -
24/07:40pm 14.3 SW 15 25 1011.1 - 14.2 - Cloudy 10 - - - -
24/07:30pm 14.3 SW 17 24 1010.9 - 14.2 - Partly cloudy 9 - - - -
24/07:00pm 15.1 SW 19 28 1010.0 - 14.0 - Partly cloudy 10 - - - -
24/06:40pm 15.7 SSW 17 28 1009.1 - 14.0 - Partly cloudy 10 - - - -
24/06:30pm 15.8 SSW 17 25 1008.9 - 14.0 - Partly cloudy 10 - - - -
24/06:00pm 16.9 SW 11 17 1008.1 - 14.0 - Cloudy 10 - - - -
24/05:30pm 17.3 SW 12 18 1007.3 - 14.0 - Partly cloudy 10 - - - -
24/05:16pm 17.2 WSW 7 11 1007.0 - 14.0 - Partly cloudy 10 - - - -
24/05:00pm 17.2 WSW 10 13 1006.9 - 14.0 - Partly cloudy 10 - - - -
24/04:48pm 17.2 WSW 10 14 1006.8 - 14.0 - Partly cloudy 10 - - - -
24/04:36pm 17.1 WSW 12 19 1006.5 - 14.0 - Partly cloudy 10 - - - -
24/04:30pm 17.0 W 13 19 1006.6 - 14.0 - Partly cloudy 10 - - - -
24/04:00pm 17.5 WSW 9 14 1006.3 - 14.0 - Partly cloudy 10 - - - -
24/03:59pm 17.7 WSW 8 14 1006.4 - 14.0 - Partly cloudy 10 - - - -
24/03:30pm 18.0 W 6 9 1006.3 - 13.0 - Partly cloudy 10 - - - -
24/03:00pm 17.3 SW 9 15 1006.2 - 12.6 Rain Cloudy 10 - - - -
24/02:30pm 18.0 SW 11 16 1006.2 - 12.4 - Partly cloudy 10 - - - -
24/02:00pm 19.0 SSE 3 5 1005.8 - 12.4 - Partly cloudy 10 - - - -
24/01:31pm 18.0 ENE 10 13 1006.1 - 12.4 - Partly cloudy 10 - - - -
24/01:30pm 17.6 ENE 10 13 1006.1 - 12.4 - Partly cloudy 10 - - - -
24/01:12pm 17.2 ENE 11 13 1006.2 - 12.2 - Partly cloudy 5 - - - -
24/01:00pm 17.3 ESE 6 8 1007.5 - 11.2 - Partly cloudy 10 - - - -
24/12:48pm 17.3 E 6 9 1007.7 - 11.2 - Partly cloudy 10 - - - -
24/12:32pm 17.0 E 8 11 1008.0 - 11.0 - Partly cloudy 5 - - - -
24/12:30pm 17.3 E 8 11 1007.9 - 11.0 - Partly cloudy 6 - - - -
24/12:21pm 17.3 SSE 4 7 1008.6 - 10.2 - Cloudy 8 - - - -
24/12:00pm 17.4 SSW 1 4 1009.8 - 9.4 Rain Cloudy 2 - - - -
24/11:58am 17.7 SSW 1 4 1010.0 - 9.2 - Partly cloudy 4 - - - -
24/11:53am 17.5 S 2 4 1009.3 - 7.8 - Partly cloudy 10 - - - -
24/11:30am 16.9 S 5 9 1008.6 - 7.4 - Partly cloudy 5 - - - -
24/11:08am 17.1 E 3 7 1009.9 - 4.8 - Partly cloudy 4 - - - -
24/11:00am 17.1 E 6 7 1009.5 - 4.2 - Cloudy 10 - - - -
24/10:51am 16.8 ESE 5 7 1009.1 - 4.2 - - 8 - - - -
24/10:30am 17.0 NNW 3 4 1009.8 - 3.2 - Partly cloudy 2 - - - -
24/10:21am 17.2 N 3 4 1009.9 - 1.8 - Partly cloudy 4 - - - -
24/10:00am 17.2 W 4 5 1009.8 - 1.0 - Partly cloudy 10 - - - -
24/09:34am 16.9 SSW 3 7 1009.5 - 1.0 - Partly cloudy 10 - - - -
24/09:30am 16.9 SSW 5 10 1009.3 - 1.0 - Partly cloudy 10 - - - -
24/09:18am 16.7 SSW 5 7 1009.1 - 0.8 - Partly cloudy 5 - - - -
24/09:13am 16.7 SSW 5 7 1009.4 - 0.4 - Partly cloudy 8 - - - -
24/09:03am 16.8 SSW 6 8 1009.3 - 0.0 - Partly cloudy 5 - - - -
24/09:00am 16.9 SSW 6 8 1009.6 - 0.6 Rain Cloudy 7 - - - -
24/08:30am 16.4 SW 13 17 1009.4 - 0.0 - Cloudy 10 - - - -
24/08:00am 16.5 SSE 4 5 1007.5 - 0.0 - Cloudy 10 - - - -
24/07:30am 15.7 CALM 0 3 1007.4 - 0.0 - - 10 - - - -
24/07:00am 15.1 N 1 4 1007.7 - 0.0 - Partly cloudy 10 - - - -
24/06:30am 14.4 SE 2 4 1008.2 - 0.0 - Partly cloudy 10 - - - -
24/06:00am 14.5 NNW 3 4 1008.2 - 0.0 - Cloudy 10 - - - -
24/05:30am 13.7 CALM 0 0 1008.1 - 0.0 - - 10 - - - -
24/05:00am 13.7 CALM 0 0 1008.3 - 0.0 - - 10 - - - -
24/04:30am 13.6 ESE 3 3 1008.4 - 0.0 - - 10 - - - -
24/04:00am 13.9 ESE 4 5 1008.8 - 0.0 - - 10 - - - -
24/03:30am 13.9 SSW 3 4 1009.3 - 0.0 - - 10 - - - -
24/03:00am 14.0 CALM 0 0 1010.0 - 0.0 - - 10 - - - -
24/02:30am 14.9 ENE 4 5 1010.1 - 0.0 - - 10 - - - -
24/02:00am 14.5 E 3 4 1010.6 - 0.0 - - 10 - - - -
24/01:30am 15.1 E 5 6 1011.1 - 0.0 - - 10 - - - -
24/01:00am 15.4 E 4 4 1011.7 - 0.0 - - 10 - - - -
24/12:30am 15.4 ESE 5 6 1012.1 - 0.0 - - 10 - - - -
24/12:00am 15.5 SE 5 7 1012.6 - 0.0 - Mostly cloudy 10 - - - -
 
Date/Time
EDT
Temp

°C
Wind Pressure Rain
since 9am
mm
Weather Cloud Vis
km
Sea
Height
m
Swell
Dir
 
Speed
knots
Gust
knots
hPa Trend Height
m
Period
s
Dir
23/11:30pm 16.0 SE 6 8 1013.0 - 0.0 - - 10 - - - -
23/11:00pm 16.2 ESE 6 8 1013.1 - 0.0 - - 10 - - - -
23/10:30pm 16.6 S 5 7 1013.7 - 0.0 - - 10 - - - -
23/10:00pm 16.7 SSE 7 11 1013.4 - 0.0 - - 10 - - - -
23/09:30pm 16.6 SE 7 9 1013.1 - 0.0 - - 10 - - - -
23/09:00pm 16.7 SE 8 11 1013.0 - 0.0 - Cloudy 10 - - - -
23/08:30pm 17.2 SE 8 9 1013.4 - 0.0 - - 10 - - - -
23/08:00pm 17.8 SE 10 13 1012.9 - 0.0 - - 10 - - - -
23/07:30pm 18.3 SSE 8 11 1013.1 - 0.0 - - 10 - - - -
23/07:00pm 18.7 SE 11 14 1012.9 - 0.0 - - 10 - - - -
23/06:30pm 19.3 SE 13 16 1012.6 - 0.0 - - 10 - - - -
23/06:00pm 20.2 SE 13 16 1012.4 - 0.0 - Partly cloudy 10 - - - -
23/05:30pm 21.1 SE 13 16 1012.0 - 0.0 - - 10 - - - -
23/05:00pm 22.9 SSE 11 13 1011.6 - 0.0 - - 10 - - - -
23/04:30pm 23.9 S 10 13 1011.4 - 0.0 - - 10 - - - -
23/04:00pm 22.6 S 14 19 1010.9 - 0.0 - - 10 - - - -
23/03:30pm 22.7 SSW 13 19 1010.8 - 0.0 - - 10 - - - -
23/03:00pm 22.4 SSW 13 17 1010.7 - 0.0 - - 10 - - - -
23/02:30pm 22.1 SSW 12 16 1010.6 - 0.0 - - 10 - - - -
23/02:00pm 22.6 SSW 11 15 1010.7 - 0.0 - - 10 - - - -
23/01:30pm 21.0 SW 11 14 1011.1 - 0.0 - - 10 - - - -
23/01:00pm 20.6 SW 11 13 1011.3 - 0.0 - - 10 - - - -
23/12:30pm 20.7 SSW 9 11 1011.5 - 0.0 - - 10 - - - -
23/12:00pm 20.2 SW 8 11 1011.6 - 0.0 - - 10 - - - -
23/11:30am 20.3 SW 8 12 1011.9 - 0.0 - - 10 - - - -
23/11:00am 19.4 SW 7 11 1012.1 - 0.0 - - 10 - - - -
23/10:30am 18.9 SSW 7 10 1012.4 - 0.0 - Partly cloudy 10 - - - -
23/10:00am 18.6 SW 7 9 1012.6 - 0.0 - Partly cloudy 10 - - - -
23/09:30am 18.4 SW 7 11 1012.6 - 0.0 - Partly cloudy 10 - - - -

Other Formats:

Comma delimited format used in spreadsheet applications
http://www.bom.gov.au/fwo/IDV60701/IDV60701.94870.axf

JavaScript Object Notation format (JSON) in row-major order
http://www.bom.gov.au/fwo/IDV60701/IDV60701.94870.json